Cytokinetics Inc (CYTK)

Market is closed
Insider Trading: Sales
Insider Price Amount Total Value Remaining Holdings Date Form 4
$67.53 4,000 $270,120.00 138,973 2024-03-05 Filing
$76.48 5,000 $382,400.00 42,632 2024-02-14 Filing
$76.85 12,500 $960,625.00 441,797 2024-02-13 Filing
$79.28 4,000 $317,120.00 142,973 2024-02-06 Filing
$79.30 28,605 $2,268,376.50 146,973 2024-02-06 Filing
$79.57 12,500 $994,625.00 441,797 2024-01-31 Filing
$81.42 12,500 $1,017,750.00 441,797 2024-01-19 Filing
$85.14 5,000 $425,700.00 42,632 2024-01-12 Filing
$86.99 4,000 $347,960.00 146,973 2024-01-04 Filing
$86.98 11,678 $1,015,752.44 150,973 2024-01-04 Filing
$85.08 12,500 $1,063,500.00 441,797 2024-01-02 Filing
$73.60 5,000 $368,000.00 18,653 2023-12-27 Filing
$73.60 5,000 $368,000.00 18,653 2023-12-27 Filing
$36.95 12,500 $461,875.00 441,797 2023-12-18 Filing
$36.34 2,458 $89,323.72 42,380 2023-12-18 Filing
$32.99 12,500 $412,375.00 441,417 2023-11-30 Filing
$34.57 12,500 $432,125.00 441,417 2023-11-15 Filing
$35.40 2,500 $88,500.00 150,664 2023-11-09 Filing
$32.17 12,500 $402,125.00 441,417 2023-10-30 Filing
$33.70 12,500 $421,250.00 441,417 2023-10-16 Filing